createdAt,value
2018-07-10T00:00:12.722Z,2.20
2018-07-10T00:02:35.342Z,3.80
2018-07-10T00:04:26.681Z,5.07
2018-07-10T00:06:49.745Z,6.80
2018-07-10T00:08:12.377Z,2.40
2018-07-10T00:10:38.519Z,3.07
2018-07-10T00:11:44.258Z,4.17
2018-07-10T00:12:49.769Z,4.77
2018-07-10T00:13:55.753Z,4.20
2018-07-10T00:15:01.242Z,6.13
2018-07-10T00:16:06.681Z,8.07
2018-07-10T00:17:12.311Z,6.53
2018-07-10T00:18:18.360Z,2.57
2018-07-10T00:19:24.006Z,4.97
2018-07-10T00:20:29.521Z,4.53
2018-07-10T00:21:35.059Z,5.10
2018-07-10T00:22:40.607Z,3.67
2018-07-10T00:23:46.110Z,2.63
2018-07-10T00:24:51.617Z,4.00
2018-07-10T00:25:57.051Z,9.93
2018-07-10T00:27:02.640Z,2.77
2018-07-10T00:28:08.174Z,5.93
2018-07-10T00:29:13.836Z,5.17
2018-07-10T00:30:19.312Z,3.83
2018-07-10T00:31:24.967Z,6.00
2018-07-10T00:32:30.551Z,6.43
2018-07-10T00:33:36.085Z,3.33
2018-07-10T00:34:41.621Z,6.13
2018-07-10T00:35:47.165Z,5.27
2018-07-10T00:36:52.762Z,5.87
2018-07-10T00:38:15.042Z,12.10
2018-07-10T00:39:20.565Z,6.30
2018-07-10T00:40:26.117Z,2.63
2018-07-10T00:41:35.223Z,3.30
2018-07-10T00:42:40.801Z,7.57
2018-07-10T00:43:46.311Z,3.37
2018-07-10T00:44:51.892Z,9.90
2018-07-10T00:45:57.393Z,6.43
2018-07-10T00:47:02.849Z,5.53
2018-07-10T00:48:08.617Z,4.57
2018-07-10T00:49:14.125Z,5.30
2018-07-10T00:50:19.678Z,2.53
2018-07-10T00:51:25.712Z,7.60
2018-07-10T00:52:34.121Z,7.10
2018-07-10T00:53:39.578Z,9.10
2018-07-10T00:54:45.181Z,5.50
2018-07-10T00:55:50.732Z,4.17
2018-07-10T00:56:56.511Z,9.27
2018-07-10T00:58:02.091Z,4.70
2018-07-10T00:59:08.136Z,5.67
2018-07-10T01:00:26.149Z,5.70
2018-07-10T01:01:31.942Z,5.40
2018-07-10T01:02:37.456Z,7.60
2018-07-10T01:03:42.894Z,3.40
2018-07-10T01:04:48.489Z,4.20
2018-07-10T01:05:54.037Z,4.90
2018-07-10T01:06:59.589Z,4.03
2018-07-10T01:08:05.205Z,5.07
2018-07-10T01:09:15.358Z,11.00
2018-07-10T01:10:20.763Z,4.27
2018-07-10T01:11:26.342Z,10.67
2018-07-10T01:12:31.823Z,5.80
2018-07-10T01:13:37.510Z,9.50
2018-07-10T01:14:43.206Z,5.00
2018-07-10T01:15:48.705Z,3.60
2018-07-10T01:16:54.291Z,9.47
2018-07-10T01:17:59.913Z,9.23
2018-07-10T01:19:14.550Z,5.10
2018-07-10T01:20:20.876Z,3.97
2018-07-10T01:21:27.698Z,4.10
2018-07-10T01:22:33.230Z,6.00
2018-07-10T01:23:39.514Z,7.30
2018-07-10T01:24:45.372Z,4.40
2018-07-10T01:25:51.146Z,5.30
2018-07-10T01:26:56.710Z,2.30
2018-07-10T01:28:02.342Z,5.17
2018-07-10T01:29:16.805Z,5.20
2018-07-10T01:30:22.474Z,2.30
2018-07-10T01:31:28.109Z,7.70
2018-07-10T01:32:33.714Z,3.20
2018-07-10T01:33:39.380Z,7.93
2018-07-10T01:34:44.913Z,5.87
2018-07-10T01:35:50.790Z,8.77
2018-07-10T01:36:56.334Z,6.60
2018-07-10T01:38:01.902Z,4.80
2018-07-10T01:39:07.989Z,7.73
2018-07-10T01:40:13.537Z,10.57
2018-07-10T01:41:19.475Z,5.23
2018-07-10T01:42:25.006Z,4.27
2018-07-10T01:43:30.962Z,7.90
2018-07-10T01:44:36.445Z,4.60
2018-07-10T01:45:41.938Z,4.80
2018-07-10T01:46:47.469Z,4.90
2018-07-10T01:47:52.978Z,7.20
2018-07-10T01:48:58.633Z,3.80
2018-07-10T01:50:04.246Z,6.87
2018-07-10T01:51:09.876Z,4.23
2018-07-10T01:52:15.389Z,6.70
2018-07-10T01:53:21.317Z,10.53
2018-07-10T01:54:26.810Z,5.27
2018-07-10T01:55:33.205Z,3.90
2018-07-10T01:56:38.808Z,5.77
2018-07-10T01:57:44.349Z,2.50
2018-07-10T01:58:49.894Z,9.13
2018-07-10T01:59:56.061Z,3.17
2018-07-10T02:01:01.681Z,5.20
2018-07-10T02:02:07.181Z,6.37
2018-07-10T02:03:13.192Z,4.23
2018-07-10T02:04:18.818Z,7.70
2018-07-10T02:05:24.361Z,3.10
2018-07-10T02:06:30.491Z,3.17
2018-07-10T02:07:35.970Z,5.27
2018-07-10T02:08:41.533Z,4.33
2018-07-10T02:09:47.047Z,14.07
2018-07-10T02:10:52.591Z,3.17
2018-07-10T02:11:58.053Z,4.20
2018-07-10T02:13:03.549Z,5.63
2018-07-10T02:14:09.195Z,5.20
2018-07-10T02:15:14.715Z,4.40
2018-07-10T02:16:20.234Z,5.63
2018-07-10T02:17:25.730Z,6.50
2018-07-10T02:18:31.590Z,9.80
2018-07-10T02:19:37.951Z,7.90
2018-07-10T02:20:59.574Z,5.80
2018-07-10T02:22:05.147Z,5.90
2018-07-10T02:23:10.717Z,5.70
2018-07-10T02:24:22.510Z,7.43
2018-07-10T02:25:28.053Z,5.57
2018-07-10T02:26:33.922Z,5.27
2018-07-10T02:27:39.437Z,7.90
2018-07-10T02:28:44.969Z,7.90
2018-07-10T02:29:50.882Z,3.13
2018-07-10T02:30:56.198Z,4.33
2018-07-10T02:32:01.614Z,8.73
2018-07-10T02:33:07.814Z,8.20
2018-07-10T02:34:14.032Z,6.80
2018-07-10T02:35:19.607Z,5.80
2018-07-10T02:36:25.553Z,5.30
2018-07-10T02:37:32.482Z,8.17
2018-07-10T02:38:46.917Z,5.27
2018-07-10T02:39:52.417Z,4.30
2018-07-10T02:41:00.547Z,7.10
2018-07-10T02:42:06.099Z,8.43
2018-07-10T02:43:11.663Z,8.00
2018-07-10T02:44:17.298Z,4.23
2018-07-10T02:45:22.860Z,7.67
2018-07-10T02:46:30.494Z,2.63
2018-07-10T02:47:36.065Z,6.57
2018-07-10T02:48:41.718Z,3.57
2018-07-10T02:49:47.491Z,6.47
2018-07-10T02:50:54.245Z,9.67
2018-07-10T02:52:06.354Z,4.37
2018-07-10T02:53:12.044Z,4.80
2018-07-10T02:54:18.327Z,14.90
2018-07-10T02:55:24.733Z,2.63
2018-07-10T02:56:31.259Z,4.50
2018-07-10T02:57:38.325Z,11.20
2018-07-10T02:58:43.833Z,5.67
2018-07-10T02:59:49.622Z,5.50
2018-07-10T03:00:55.203Z,5.10
2018-07-10T03:02:00.749Z,5.23
2018-07-10T03:03:06.401Z,6.63
2018-07-10T03:04:11.966Z,5.87
2018-07-10T03:05:17.798Z,6.30
2018-07-10T03:06:23.335Z,2.67
2018-07-10T03:07:31.244Z,8.20
2018-07-10T03:08:37.409Z,7.47
2018-07-10T03:09:43.181Z,9.73
2018-07-10T03:10:48.885Z,9.87
2018-07-10T03:11:54.518Z,5.70
2018-07-10T03:13:00.689Z,8.07
2018-07-10T03:14:09.672Z,4.27
2018-07-10T03:15:15.690Z,6.67
2018-07-10T03:16:21.262Z,8.00
2018-07-10T03:17:26.949Z,6.13
2018-07-10T03:18:33.478Z,6.00
2018-07-10T03:19:39.711Z,6.20
2018-07-10T03:20:46.117Z,8.40
2018-07-10T03:21:51.594Z,3.60
2018-07-10T03:22:57.147Z,8.37
2018-07-10T03:24:02.706Z,7.53
2018-07-10T03:25:09.472Z,4.80
2018-07-10T03:26:14.970Z,7.90
2018-07-10T03:27:20.597Z,9.83
2018-07-10T03:28:26.285Z,5.53
2018-07-10T03:29:31.834Z,7.70
2018-07-10T03:30:37.366Z,1.50
2018-07-10T03:31:42.982Z,4.33
2018-07-10T03:32:48.490Z,6.03
2018-07-10T03:33:54.244Z,4.33
2018-07-10T03:34:59.829Z,7.00
2018-07-10T03:36:05.610Z,6.43
2018-07-10T03:37:11.206Z,5.93
2018-07-10T03:38:16.707Z,8.87
2018-07-10T03:39:22.349Z,2.93
2018-07-10T03:40:30.085Z,3.67
2018-07-10T03:41:35.756Z,6.47
2018-07-10T03:42:41.692Z,3.13
2018-07-10T03:43:47.296Z,8.93
2018-07-10T03:44:53.265Z,3.63
2018-07-10T03:45:59.074Z,5.40
2018-07-10T03:47:04.788Z,7.57
2018-07-10T03:48:10.293Z,7.23
2018-07-10T03:49:15.831Z,4.50
2018-07-10T03:50:22.202Z,4.93
2018-07-10T03:51:28.174Z,5.13
2018-07-10T03:52:36.097Z,7.73
2018-07-10T03:53:41.693Z,4.00
2018-07-10T03:54:47.451Z,12.03
2018-07-10T03:55:53.037Z,4.70
2018-07-10T03:56:58.596Z,8.90
2018-07-10T03:59:14.795Z,2.80
2018-07-10T04:00:20.436Z,5.07
2018-07-10T04:01:31.456Z,7.63
2018-07-10T04:02:46.097Z,7.83
2018-07-10T04:03:51.601Z,8.57
2018-07-10T04:04:57.171Z,7.30
2018-07-10T04:06:03.546Z,10.50
2018-07-10T04:07:09.133Z,8.60
2018-07-10T04:08:15.944Z,12.40
2018-07-10T04:09:21.482Z,7.53
2018-07-10T04:10:33.737Z,9.80
2018-07-10T04:11:47.745Z,6.40
2018-07-10T04:12:53.264Z,8.67
2018-07-10T04:13:59.443Z,6.10
2018-07-10T04:15:06.291Z,8.53
2018-07-10T04:16:12.193Z,6.77
2018-07-10T04:17:17.947Z,5.90
2018-07-10T04:18:26.557Z,8.47
2018-07-10T04:19:32.483Z,14.20
2018-07-10T04:20:57.698Z,5.37
2018-07-10T04:22:04.186Z,8.50
2018-07-10T04:23:09.710Z,5.87
2018-07-10T04:24:19.318Z,3.90
2018-07-10T04:25:33.571Z,3.00
2018-07-10T04:26:43.539Z,7.40
2018-07-10T04:28:05.714Z,10.73
2018-07-10T04:29:30.602Z,5.57
2018-07-10T04:30:46.958Z,7.37
2018-07-10T04:31:58.481Z,7.63
2018-07-10T04:33:04.077Z,7.57
2018-07-10T04:34:09.665Z,16.47
2018-07-10T04:35:19.711Z,9.10
2018-07-10T04:36:25.479Z,6.43
2018-07-10T04:37:31.054Z,5.13
2018-07-10T04:38:37.035Z,4.00
2018-07-10T04:39:44.614Z,8.73
2018-07-10T04:40:50.327Z,5.30
2018-07-10T04:42:07.106Z,8.17
2018-07-10T04:43:18.878Z,9.73
2018-07-10T04:44:32.237Z,12.33
2018-07-10T04:45:45.425Z,6.13
2018-07-10T04:46:57.946Z,9.07
2018-07-10T04:48:03.580Z,4.30
2018-07-10T04:49:24.502Z,4.70
2018-07-10T04:50:39.672Z,5.23
2018-07-10T04:51:53.997Z,10.73
2018-07-10T04:53:34.973Z,5.23
2018-07-10T04:54:53.597Z,8.30
2018-07-10T04:55:59.426Z,8.70
2018-07-10T04:57:16.805Z,2.60
2018-07-10T04:58:23.140Z,5.70
2018-07-10T04:59:28.689Z,11.23
2018-07-10T05:00:37.689Z,7.33
2018-07-10T05:01:43.555Z,6.50
2018-07-10T05:02:50.347Z,8.70
2018-07-10T05:03:55.957Z,8.20
2018-07-10T05:05:01.795Z,9.40
2018-07-10T05:06:09.222Z,8.07
2018-07-10T05:07:14.826Z,6.80
2018-07-10T05:08:21.865Z,6.40
2018-07-10T05:09:27.486Z,7.27
2018-07-10T05:10:34.109Z,8.97
2018-07-10T05:11:43.596Z,7.50
2018-07-10T05:12:49.102Z,6.10
2018-07-10T05:13:55.226Z,9.40
2018-07-10T05:15:00.800Z,11.67
2018-07-10T05:16:07.170Z,5.23
2018-07-10T05:17:14.761Z,10.50
2018-07-10T05:18:20.317Z,14.37
2018-07-10T05:19:25.898Z,20.73
2018-07-10T05:20:31.464Z,10.03
2018-07-10T05:21:37.546Z,13.10
2018-07-10T05:22:43.112Z,8.93
2018-07-10T05:23:49.361Z,11.07
2018-07-10T05:24:55.149Z,14.53
2018-07-10T05:26:01.226Z,8.23
2018-07-10T05:27:06.777Z,10.40
2018-07-10T05:28:12.461Z,15.17
2018-07-10T05:29:18.093Z,10.87
2018-07-10T05:30:23.701Z,17.80
2018-07-10T05:31:29.298Z,13.27
2018-07-10T05:32:34.855Z,10.63
2018-07-10T05:33:47.161Z,12.47
2018-07-10T05:34:52.682Z,14.50
2018-07-10T05:35:58.658Z,12.03
2018-07-10T05:37:04.411Z,10.90
2018-07-10T05:38:09.953Z,11.50
2018-07-10T05:39:15.574Z,12.03
2018-07-10T05:40:36.216Z,8.53
2018-07-10T05:41:48.067Z,12.40
2018-07-10T05:42:53.606Z,10.80
2018-07-10T05:43:59.153Z,7.70
2018-07-10T05:45:05.295Z,9.23
2018-07-10T05:46:10.889Z,17.60
2018-07-10T05:47:16.509Z,14.40
2018-07-10T05:48:22.654Z,6.47
2018-07-10T05:49:28.242Z,9.03
2018-07-10T05:50:38.331Z,17.00
2018-07-10T05:51:51.185Z,14.97
2018-07-10T05:52:56.681Z,8.10
2018-07-10T05:54:06.173Z,14.53
2018-07-10T05:55:12.314Z,15.90
2018-07-10T05:56:17.997Z,13.87
2018-07-10T05:57:23.558Z,13.33
2018-07-10T05:58:29.111Z,10.13
2018-07-10T05:59:35.277Z,11.20
2018-07-10T06:00:40.952Z,15.13
2018-07-10T06:01:46.490Z,14.87
2018-07-10T06:02:52.394Z,19.20
2018-07-10T06:03:58.239Z,16.83
2018-07-10T06:05:04.250Z,10.00
2018-07-10T06:06:09.926Z,10.37
2018-07-10T06:07:15.490Z,14.83
2018-07-10T06:08:20.973Z,12.50
2018-07-10T06:09:26.469Z,15.33
2018-07-10T06:10:32.120Z,14.63
2018-07-10T06:11:38.099Z,21.23
2018-07-10T06:12:43.704Z,14.63
2018-07-10T06:13:49.259Z,8.97
2018-07-10T06:14:56.489Z,13.83
2018-07-10T06:16:02.271Z,19.33
2018-07-10T06:17:07.810Z,9.90
2018-07-10T06:18:13.365Z,11.00
2018-07-10T06:19:18.961Z,14.27
2018-07-10T06:20:25.870Z,11.50
2018-07-10T06:21:43.187Z,15.40
2018-07-10T06:22:49.280Z,10.77
2018-07-10T06:23:54.829Z,7.63
2018-07-10T06:25:04.772Z,10.80
2018-07-10T06:26:11.097Z,8.53
2018-07-10T06:27:19.861Z,8.00
2018-07-10T06:28:30.254Z,7.27
2018-07-10T06:30:00.951Z,11.97
2018-07-10T06:31:13.029Z,16.27
2018-07-10T06:32:22.071Z,11.50
2018-07-10T06:33:28.203Z,17.03
2018-07-10T06:34:39.486Z,10.80
2018-07-10T06:35:53.661Z,22.20
2018-07-10T06:37:05.581Z,13.30
2018-07-10T06:38:15.408Z,12.17
2018-07-10T06:39:21.282Z,15.80
2018-07-10T06:40:27.204Z,20.23
2018-07-10T06:41:32.811Z,23.67
2018-07-10T06:43:50.346Z,13.83
2018-07-10T06:44:55.907Z,14.93
2018-07-10T06:46:01.555Z,17.60
2018-07-10T06:47:42.902Z,19.83
2018-07-10T06:48:53.935Z,14.73
2018-07-10T06:50:01.089Z,12.83
2018-07-10T06:51:14.479Z,20.10
2018-07-10T06:52:21.782Z,16.27
2018-07-10T06:53:27.486Z,9.37
2018-07-10T06:54:57.022Z,20.17
2018-07-10T06:56:06.480Z,20.87
2018-07-10T06:57:12.521Z,13.07
2018-07-10T06:58:18.049Z,19.83
2018-07-10T06:59:23.798Z,23.47
2018-07-10T07:00:29.640Z,20.93
2018-07-10T07:01:35.217Z,22.70
2018-07-10T07:02:41.564Z,16.37
2018-07-10T07:03:47.175Z,10.63
2018-07-10T07:04:52.731Z,15.03
2018-07-10T07:05:58.758Z,15.63
2018-07-10T07:07:04.315Z,14.07
2018-07-10T07:08:09.912Z,15.17
2018-07-10T07:09:15.514Z,20.40
2018-07-10T07:10:21.523Z,10.83
2018-07-10T07:11:27.654Z,18.17
2018-07-10T07:12:34.166Z,14.47
2018-07-10T07:13:39.713Z,12.90
2018-07-10T07:14:45.473Z,15.20
2018-07-10T07:15:51.209Z,23.10
2018-07-10T07:16:56.783Z,11.00
2018-07-10T07:18:02.304Z,19.93
2018-07-10T07:19:07.797Z,12.93
2018-07-10T07:20:13.329Z,12.80
2018-07-10T07:21:18.926Z,23.03
2018-07-10T07:22:24.448Z,16.50
2018-07-10T07:23:29.976Z,20.47
2018-07-10T07:24:35.609Z,21.20
2018-07-10T07:25:41.231Z,22.43
2018-07-10T07:26:46.773Z,9.03
2018-07-10T07:27:52.273Z,18.73
2018-07-10T07:28:57.809Z,17.50
2018-07-10T07:30:03.317Z,18.40
2018-07-10T07:31:08.884Z,21.27
2018-07-10T07:32:14.510Z,19.37
2018-07-10T07:33:20.200Z,12.47
2018-07-10T07:34:25.753Z,29.47
2018-07-10T07:35:31.240Z,25.63
2018-07-10T07:36:36.785Z,15.23
2018-07-10T07:37:42.669Z,17.00
2018-07-10T07:38:48.227Z,15.97
2018-07-10T07:39:55.057Z,14.23
2018-07-10T07:41:00.778Z,14.20
2018-07-10T07:42:06.547Z,18.63
2018-07-10T07:43:12.303Z,17.40
2018-07-10T07:44:17.871Z,15.10
2018-07-10T07:45:23.949Z,16.30
2018-07-10T07:46:29.643Z,21.77
2018-07-10T07:47:35.614Z,23.93
2018-07-10T07:48:41.338Z,13.97
2018-07-10T07:49:51.005Z,18.43
2018-07-10T07:51:00.361Z,16.60
2018-07-10T07:52:06.562Z,16.27
2018-07-10T07:53:16.025Z,17.03
2018-07-10T07:54:22.106Z,18.37
2018-07-10T07:55:27.771Z,24.90
2018-07-10T07:56:33.270Z,16.43
2018-07-10T07:57:39.250Z,10.87
2018-07-10T07:58:44.930Z,10.00
2018-07-10T07:59:50.450Z,13.53
2018-07-10T08:00:56.133Z,14.33
2018-07-10T08:02:01.619Z,11.60
2018-07-10T08:03:07.130Z,7.47
2018-07-10T08:04:12.991Z,14.50
2018-07-10T08:05:18.978Z,13.87
2018-07-10T08:06:24.534Z,13.90
2018-07-10T08:07:30.158Z,10.80
2018-07-10T08:08:36.131Z,12.63
2018-07-10T08:09:42.078Z,10.93
2018-07-10T08:10:47.693Z,15.20
2018-07-10T08:11:53.210Z,10.67
2018-07-10T08:12:58.754Z,17.20
2018-07-10T08:14:04.837Z,16.37
2018-07-10T08:15:11.355Z,17.30
2018-07-10T08:16:17.097Z,14.10
2018-07-10T08:17:24.794Z,13.27
2018-07-10T08:18:30.339Z,10.87
2018-07-10T08:19:36.475Z,14.73
2018-07-10T08:20:42.049Z,11.93
2018-07-10T08:21:50.560Z,15.50
2018-07-10T08:22:56.117Z,17.23
2018-07-10T08:24:01.920Z,15.47
2018-07-10T08:25:08.116Z,13.40
2018-07-10T08:26:13.693Z,9.90
2018-07-10T08:27:19.250Z,10.20
2018-07-10T08:28:24.823Z,18.70
2018-07-10T08:29:30.673Z,24.90
2018-07-10T08:30:36.226Z,11.70
2018-07-10T08:31:44.493Z,10.43
2018-07-10T08:32:52.509Z,26.20
2018-07-10T08:33:58.213Z,19.00
2018-07-10T08:35:03.797Z,18.30
2018-07-10T08:36:09.434Z,22.50
2018-07-10T08:37:15.047Z,13.33
2018-07-10T08:38:42.155Z,17.40
2018-07-10T08:39:47.697Z,17.17
2018-07-10T08:40:53.787Z,22.47
2018-07-10T08:41:59.301Z,14.50
2018-07-10T08:43:04.790Z,13.80
2018-07-10T08:44:10.229Z,19.57
2018-07-10T08:45:15.813Z,20.17
2018-07-10T08:46:29.105Z,21.37
2018-07-10T08:47:35.594Z,21.80
2018-07-10T08:48:41.556Z,26.00
2018-07-10T08:49:47.344Z,19.33
2018-07-10T08:50:52.892Z,21.77
2018-07-10T08:51:58.566Z,16.73
2018-07-10T08:53:04.160Z,18.03
2018-07-10T08:54:09.868Z,15.13
2018-07-10T08:55:15.395Z,14.60
2018-07-10T08:56:20.950Z,12.50
2018-07-10T08:57:26.666Z,15.70
2018-07-10T08:58:32.552Z,22.67
2018-07-10T08:59:39.378Z,19.03
2018-07-10T09:00:44.980Z,14.57
2018-07-10T09:01:51.160Z,24.83
2018-07-10T09:02:56.712Z,22.10
2018-07-10T09:04:02.258Z,21.70
2018-07-10T09:05:07.855Z,13.73
2018-07-10T09:06:13.429Z,15.87
2018-07-10T09:07:18.994Z,27.80
2018-07-10T09:08:24.693Z,17.83
2018-07-10T09:09:29.842Z,14.93
2018-07-10T09:10:35.445Z,13.27
2018-07-10T09:11:41.729Z,18.80
2018-07-10T09:12:47.193Z,12.80
2018-07-10T09:13:52.937Z,13.93
2018-07-10T09:14:58.551Z,14.03
2018-07-10T09:16:04.094Z,13.93
2018-07-10T09:17:09.662Z,20.67
2018-07-10T09:18:15.225Z,15.63
2018-07-10T09:19:26.199Z,17.17
2018-07-10T09:20:42.105Z,17.30
2018-07-10T09:21:58.545Z,26.03
2018-07-10T09:23:04.269Z,21.73
2018-07-10T09:24:09.821Z,20.43
2018-07-10T09:25:15.533Z,18.37
2018-07-10T09:26:21.146Z,12.57
2018-07-10T09:27:26.766Z,25.40
2018-07-10T09:28:38.361Z,14.73
2018-07-10T09:29:43.940Z,19.73
2018-07-10T09:30:49.510Z,16.33
2018-07-10T09:31:55.081Z,11.97
2018-07-10T09:33:00.652Z,16.07
2018-07-10T09:34:06.261Z,16.77
2018-07-10T09:35:11.915Z,16.40
2018-07-10T09:36:17.817Z,17.33
2018-07-10T09:37:28.719Z,15.53
2018-07-10T09:38:36.254Z,18.70
2018-07-10T09:39:41.817Z,15.13
2018-07-10T09:40:47.367Z,26.50
2018-07-10T09:41:52.905Z,21.37
2018-07-10T09:43:04.162Z,19.73
2018-07-10T09:44:10.215Z,20.73
2018-07-10T09:45:16.463Z,25.93
2018-07-10T09:46:22.023Z,19.53
2018-07-10T09:47:27.572Z,23.70
2018-07-10T09:48:33.112Z,25.90
2018-07-10T09:49:38.818Z,18.27
2018-07-10T09:50:44.317Z,15.53
2018-07-10T09:51:49.868Z,18.17
2018-07-10T09:52:55.426Z,17.60
2018-07-10T09:54:00.951Z,16.23
2018-07-10T09:55:06.533Z,23.00
2018-07-10T09:56:12.058Z,14.63
2018-07-10T09:57:17.635Z,18.53
2018-07-10T09:58:23.690Z,12.77
2018-07-10T09:59:29.290Z,18.43
2018-07-10T10:00:40.567Z,18.93
2018-07-10T10:01:46.367Z,19.30
2018-07-10T10:02:51.994Z,11.57
2018-07-10T10:03:57.694Z,15.00
2018-07-10T10:05:04.885Z,16.10
2018-07-10T10:06:10.045Z,20.63
2018-07-10T10:07:15.461Z,21.20
2018-07-10T10:08:20.985Z,20.63
2018-07-10T10:09:26.581Z,18.60
2018-07-10T10:10:32.121Z,17.30
2018-07-10T10:11:37.762Z,16.17
2018-07-10T10:12:43.331Z,15.60
2018-07-10T10:13:49.272Z,24.87
2018-07-10T10:14:54.853Z,17.80
2018-07-10T10:16:00.514Z,15.87
2018-07-10T10:17:06.045Z,19.33
2018-07-10T10:18:11.241Z,20.60
2018-07-10T10:19:17.313Z,17.30
2018-07-10T10:20:22.842Z,21.30
2018-07-10T10:21:30.145Z,13.33
2018-07-10T10:22:37.214Z,27.93
2018-07-10T10:23:43.103Z,14.00
2018-07-10T10:24:49.305Z,16.00
2018-07-10T10:25:54.990Z,15.23
2018-07-10T10:27:00.710Z,19.20
2018-07-10T10:28:08.644Z,16.07
2018-07-10T10:29:14.200Z,20.57
2018-07-10T10:30:19.734Z,19.53
2018-07-10T10:31:25.293Z,29.53
2018-07-10T10:32:31.138Z,20.33
2018-07-10T10:33:36.867Z,16.53
2018-07-10T10:34:42.418Z,20.40
2018-07-10T10:35:47.961Z,18.67
2018-07-10T10:36:53.866Z,24.33
2018-07-10T10:38:01.573Z,14.57
2018-07-10T10:39:07.190Z,24.70
2018-07-10T10:40:13.574Z,20.57
2018-07-10T10:41:19.053Z,18.10
2018-07-10T10:42:25.246Z,21.07
2018-07-10T10:43:30.849Z,17.33
2018-07-10T10:44:36.498Z,20.03
2018-07-10T10:45:44.945Z,18.80
2018-07-10T10:46:51.942Z,16.90
2018-07-10T10:47:57.493Z,17.57
2018-07-10T10:49:03.117Z,19.57
2018-07-10T10:50:08.697Z,12.83
2018-07-10T10:51:14.325Z,14.93
2018-07-10T10:52:19.918Z,12.63
2018-07-10T10:53:25.430Z,15.53
2018-07-10T10:54:31.440Z,19.63
2018-07-10T10:55:37.375Z,14.73
2018-07-10T10:56:43.073Z,13.93
2018-07-10T10:57:48.603Z,13.47
2018-07-10T10:58:54.852Z,15.33
2018-07-10T11:00:00.377Z,14.50
2018-07-10T11:01:05.932Z,10.70
2018-07-10T11:02:11.522Z,8.43
2018-07-10T11:03:17.062Z,14.73
2018-07-10T11:04:22.666Z,13.33
2018-07-10T11:05:29.975Z,9.63
2018-07-10T11:06:35.289Z,8.77
2018-07-10T11:07:40.742Z,8.90
2018-07-10T11:08:46.302Z,11.20
2018-07-10T11:09:51.845Z,10.53
2018-07-10T11:10:57.410Z,11.00
2018-07-10T11:12:03.012Z,15.87
2018-07-10T11:13:08.599Z,9.53
2018-07-10T11:14:14.837Z,12.90
2018-07-10T11:15:21.085Z,9.23
2018-07-10T11:16:26.711Z,10.40
2018-07-10T11:17:39.190Z,10.40
2018-07-10T11:19:03.082Z,11.70
2018-07-10T11:20:34.550Z,12.60
2018-07-10T11:23:03.725Z,11.40
2018-07-10T11:24:09.308Z,13.10
2018-07-10T11:25:15.235Z,16.90
2018-07-10T11:26:40.701Z,9.00
2018-07-10T11:28:05.654Z,9.93
2018-07-10T11:29:11.462Z,8.67
2018-07-10T11:30:17.010Z,21.50
2018-07-10T11:31:22.538Z,17.63
2018-07-10T11:32:28.097Z,10.20
2018-07-10T11:33:33.670Z,10.40
2018-07-10T11:34:39.642Z,8.13
2018-07-10T11:35:45.191Z,9.10
2018-07-10T11:36:50.739Z,10.70
2018-07-10T11:37:58.314Z,9.60
2018-07-10T11:39:08.707Z,17.13
2018-07-10T11:40:15.218Z,8.33
2018-07-10T11:41:20.749Z,11.63
2018-07-10T11:42:26.325Z,9.13
2018-07-10T11:43:31.988Z,6.73
2018-07-10T11:44:37.496Z,8.00
2018-07-10T11:45:43.438Z,6.80
2018-07-10T11:46:49.654Z,14.93
2018-07-10T11:47:55.247Z,11.47
2018-07-10T11:49:00.765Z,12.13
2018-07-10T11:50:06.279Z,11.80
2018-07-10T11:51:11.887Z,14.10
2018-07-10T11:52:17.442Z,13.83
2018-07-10T11:53:23.045Z,14.53
2018-07-10T11:54:28.554Z,15.63
2018-07-10T11:55:34.698Z,12.70
2018-07-10T11:56:40.325Z,13.57
2018-07-10T11:57:45.881Z,9.90
2018-07-10T11:58:51.931Z,10.60
2018-07-10T11:59:57.934Z,8.40
2018-07-10T12:01:03.743Z,13.10
2018-07-10T12:02:09.290Z,9.40
2018-07-10T12:03:14.813Z,10.33
2018-07-10T12:04:20.511Z,6.83
2018-07-10T12:05:26.286Z,15.43
2018-07-10T12:06:32.485Z,6.73
2018-07-10T12:07:38.941Z,9.33
2018-07-10T12:08:54.612Z,6.47
2018-07-10T12:10:17.665Z,6.10
2018-07-10T12:11:24.986Z,8.67
2018-07-10T12:12:30.525Z,8.60
2018-07-10T12:13:36.068Z,12.83
2018-07-10T12:14:41.653Z,14.03
2018-07-10T12:15:47.274Z,11.73
2018-07-10T12:16:53.321Z,10.17
2018-07-10T12:17:59.690Z,11.00
2018-07-10T12:19:05.830Z,9.80
2018-07-10T12:20:13.404Z,24.13
2018-07-10T12:21:20.166Z,16.80
2018-07-10T12:22:25.686Z,12.00
2018-07-10T12:23:32.362Z,13.80
2018-07-10T12:24:38.106Z,15.23
2018-07-10T12:25:44.999Z,6.60
2018-07-10T12:26:50.525Z,9.97
2018-07-10T12:27:56.075Z,8.83
2018-07-10T12:29:02.040Z,7.47
2018-07-10T12:30:09.307Z,4.97
2018-07-10T12:31:15.129Z,10.43
2018-07-10T12:32:21.103Z,8.60
2018-07-10T12:33:26.788Z,9.33
2018-07-10T12:34:32.324Z,12.57
2018-07-10T12:35:37.874Z,9.43
2018-07-10T12:36:43.446Z,14.37
2018-07-10T12:37:48.998Z,6.97
2018-07-10T12:38:54.567Z,9.07
2018-07-10T12:40:00.122Z,7.53
2018-07-10T12:41:05.662Z,12.57
2018-07-10T12:42:11.229Z,7.70
2018-07-10T12:43:16.768Z,10.73
2018-07-10T12:44:22.269Z,11.13
2018-07-10T12:45:27.894Z,11.87
2018-07-10T12:46:33.556Z,15.23
2018-07-10T12:47:39.179Z,12.40
2018-07-10T12:48:45.001Z,9.87
2018-07-10T12:49:50.561Z,7.60
2018-07-10T12:50:56.128Z,7.37
2018-07-10T12:52:01.934Z,13.90
2018-07-10T12:53:07.451Z,7.77
2018-07-10T12:54:13.082Z,10.37
2018-07-10T12:55:20.180Z,11.93
2018-07-10T12:56:25.714Z,14.63
2018-07-10T12:57:41.382Z,12.73
2018-07-10T12:58:46.947Z,10.20
2018-07-10T12:59:52.993Z,12.20
2018-07-10T13:00:58.565Z,8.23
2018-07-10T13:02:04.141Z,11.37
2018-07-10T13:03:11.625Z,7.10
2018-07-10T13:04:17.677Z,14.70
2018-07-10T13:05:27.890Z,6.07
2018-07-10T13:06:33.382Z,11.10
2018-07-10T13:07:39.261Z,13.37
2018-07-10T13:08:44.849Z,10.00
2018-07-10T13:09:50.373Z,8.17
2018-07-10T13:10:55.966Z,13.80
2018-07-10T13:12:01.503Z,9.90
2018-07-10T13:13:07.176Z,8.63
2018-07-10T13:14:13.009Z,15.57
2018-07-10T13:15:18.549Z,11.57
2018-07-10T13:16:24.191Z,11.50
2018-07-10T13:17:29.909Z,8.90
2018-07-10T13:18:35.522Z,6.53
2018-07-10T13:19:41.617Z,14.10
2018-07-10T13:20:47.242Z,14.47
2018-07-10T13:21:52.862Z,11.93
2018-07-10T13:22:58.509Z,10.77
2018-07-10T13:24:07.706Z,10.77
2018-07-10T13:25:21.405Z,10.57
2018-07-10T13:26:28.551Z,5.53
2018-07-10T13:27:34.127Z,11.77
2018-07-10T13:28:39.841Z,6.97
2018-07-10T13:29:45.621Z,4.70
2018-07-10T13:30:51.539Z,11.73
2018-07-10T13:31:57.113Z,6.70
2018-07-10T13:33:02.730Z,12.57
2018-07-10T13:34:08.270Z,8.90
2018-07-10T13:35:13.804Z,13.37
2018-07-10T13:36:19.416Z,7.93
2018-07-10T13:37:27.153Z,15.93
2018-07-10T13:38:32.676Z,11.83
2018-07-10T13:39:38.274Z,12.43
2018-07-10T13:40:43.801Z,11.63
2018-07-10T13:41:49.417Z,5.33
2018-07-10T13:42:59.170Z,9.53
2018-07-10T13:44:05.019Z,6.00
2018-07-10T13:45:10.622Z,10.57
2018-07-10T13:46:16.165Z,6.20
2018-07-10T13:47:22.523Z,6.20
2018-07-10T13:48:28.129Z,7.03
2018-07-10T13:49:33.661Z,14.13
2018-07-10T13:50:39.245Z,6.50
2018-07-10T13:51:44.974Z,5.20
2018-07-10T13:52:50.902Z,7.43
2018-07-10T13:53:56.410Z,11.00
2018-07-10T13:55:01.895Z,8.03
2018-07-10T13:56:07.421Z,7.43
2018-07-10T13:57:13.045Z,6.53
2018-07-10T13:58:21.944Z,15.07
2018-07-10T13:59:27.742Z,3.17
2018-07-10T14:00:36.510Z,4.83
2018-07-10T14:01:42.246Z,4.90
2018-07-10T14:02:47.865Z,6.23
2018-07-10T14:03:53.359Z,4.33
2018-07-10T14:04:58.889Z,6.67
2018-07-10T14:06:04.922Z,5.90
2018-07-10T14:07:10.455Z,6.50
2018-07-10T14:08:16.001Z,7.37
2018-07-10T14:09:21.703Z,4.87
2018-07-10T14:10:27.221Z,9.03
2018-07-10T14:11:33.228Z,10.10
2018-07-10T14:12:39.013Z,9.50
2018-07-10T14:13:44.673Z,5.53
2018-07-10T14:14:50.705Z,4.87
2018-07-10T14:15:57.015Z,8.17
2018-07-10T14:17:02.551Z,7.73
2018-07-10T14:18:08.321Z,6.83
2018-07-10T14:19:15.522Z,4.60
2018-07-10T14:20:21.178Z,9.73
2018-07-10T14:21:26.702Z,9.00
2018-07-10T14:22:33.019Z,11.83
2018-07-10T14:23:38.783Z,6.50
2018-07-10T14:24:43.948Z,5.33
2018-07-10T14:25:50.661Z,8.93
2018-07-10T14:26:56.240Z,6.60
2018-07-10T14:28:01.823Z,7.73
2018-07-10T14:29:07.481Z,13.27
2018-07-10T14:30:13.091Z,11.87
2018-07-10T14:31:18.693Z,7.03
2018-07-10T14:32:24.237Z,6.13
2018-07-10T14:33:30.006Z,4.23
2018-07-10T14:34:35.576Z,5.80
2018-07-10T14:35:41.150Z,3.20
2018-07-10T14:36:46.679Z,8.30
2018-07-10T14:37:52.758Z,3.63
2018-07-10T14:38:58.430Z,6.00
2018-07-10T14:40:04.072Z,9.40
2018-07-10T14:41:09.899Z,5.83
2018-07-10T14:42:15.030Z,5.00
2018-07-10T14:43:24.811Z,5.90